Japan Airlines Virtual Airport Information Service

Sapporo New Chitose Airport

ICAO: RJCC Country: Japan
Latitude: 42.7752 Longitude: 141.692
Latest Arrival : JAL529 (RJTT-RJCC) Latest Departure : ANA1272 (RJCC-RJOA)


WX CaptureLIVE
Data provided by noaa.gov | Fetched at 14:37:44

METAR : RJCC 231400Z 17006KT 9999 FEW020 BKN/// 03/02 Q1023 RMK 1SC020 A3021

TAF : RJCC 231105Z 2312/2418 16005KT 9999 FEW010 BECMG 2412/2415 34015KT TEMPO 2415/2418 4000 -SHRA BR FEW004 BKN008


Runway Data for RJCC
Data provided by openaviationdata.com

Runway ID Mag Var Hdg Length Elevation Surface ILS Freq ILS Id ILS Slope
01L -9 9851 ft 70 ft Asphalt 110.9 ICN 3
01R -9 9845 ft 70 ft Asphalt 110.75 ICH 3
19L -9 181° 9845 ft 70 ft Asphalt -- -- --
19R -9 181° 9851 ft 70 ft Asphalt 111.5 ICS 3

Sapporo New Chitose Airport, Japan
Use only for reference purposes



Not for navigational purposes.